KAKH/AKH METAR and TAF weather

Enter ICAO airport designator
Station Type Date Time Source
KAKH METAR 2022/11/30 11:38 UTC NOAA

KAKH 301138Z AUTO 00000KT 2SM +RA BR OVC004 13/12 A2997 RMK AO2 P0023 T01280122


Station Type Date Time Source
KAKH Decoded METAR 2022/11/30 11:38 UTC NOAA

GASTONIA MUNICIPAL AIRPORT, NC, United States (KAKH) 35-12N 81-09W 243M
Nov 30, 2022 - 06:38 AM EST / 2022.11.30 1138 UTC
Wind: Calm:0
Visibility: 2 mile(s):0
Sky conditions: overcast
Weather: heavy rain; mist
Precipitation last hour: 0.23 inches
Temperature: 55.0 F (12.8 C)
Dew Point: 54.0 F (12.2 C)
Relative Humidity: 96%
Pressure (altimeter): 29.97 in. Hg (1014 hPa)
ob: KAKH 301138Z AUTO 00000KT 2SM +RA BR OVC004 13/12 A2997 RMK AO2 P0023 T01280122
cycle: 11

Station Type Date Time Source
KAKH TAF UTC NOAA

Error!

Example: see airport list